createdAt,value
2023-01-19T00:00:16.326Z,100.00
2023-01-19T00:03:26.243Z,99.69
2023-01-19T00:06:26.259Z,99.35
2023-01-19T00:09:33.062Z,99.00
2023-01-19T00:12:39.706Z,98.82
2023-01-19T00:15:45.305Z,100.00
2023-01-19T00:18:50.428Z,100.00
2023-01-19T00:21:57.212Z,100.00
2023-01-19T00:24:56.992Z,100.00
2023-01-19T00:28:03.191Z,100.00
2023-01-19T00:31:10.051Z,100.00
2023-01-19T00:34:16.653Z,100.00
2023-01-19T00:37:23.583Z,100.00
2023-01-19T00:40:29.183Z,100.00
2023-01-19T00:43:35.535Z,100.00
2023-01-19T00:46:41.984Z,99.93
2023-01-19T00:49:47.848Z,100.00
2023-01-19T00:52:54.927Z,100.00
2023-01-19T00:56:01.918Z,100.00
2023-01-19T00:59:08.181Z,100.00
2023-01-19T01:02:13.743Z,100.00
2023-01-19T01:05:21.302Z,100.00
2023-01-19T01:08:26.938Z,100.00
2023-01-19T01:11:32.685Z,100.00
2023-01-19T01:14:32.586Z,100.00
2023-01-19T01:17:39.096Z,100.00
2023-01-19T01:20:45.050Z,100.00
2023-01-19T01:23:50.769Z,100.00
2023-01-19T01:26:56.508Z,100.00
2023-01-19T01:30:01.526Z,100.00
2023-01-19T01:33:07.676Z,100.00
2023-01-19T01:36:13.842Z,100.00
2023-01-19T01:39:19.360Z,100.00
2023-01-19T01:42:32.411Z,100.00
2023-01-19T01:45:49.650Z,100.00
2023-01-19T01:48:59.561Z,100.00
2023-01-19T01:52:07.032Z,100.00
2023-01-19T01:55:16.676Z,100.00
2023-01-19T01:58:21.817Z,100.00
2023-01-19T02:01:45.338Z,100.00
2023-01-19T02:04:50.406Z,100.00
2023-01-19T02:08:29.513Z,100.00
2023-01-19T02:11:51.783Z,100.00
2023-01-19T02:14:56.872Z,100.00
2023-01-19T02:18:04.643Z,100.00
2023-01-19T02:21:15.539Z,100.00
2023-01-19T02:24:20.836Z,100.00
2023-01-19T02:27:27.503Z,100.00
2023-01-19T02:30:34.807Z,100.00
2023-01-19T02:33:40.498Z,100.00
2023-01-19T02:36:53.281Z,100.00
2023-01-19T02:40:09.676Z,100.00
2023-01-19T02:43:15.777Z,100.00
2023-01-19T02:46:23.140Z,100.00
2023-01-19T02:49:28.890Z,100.00
2023-01-19T02:52:34.554Z,100.00
2023-01-19T02:55:40.884Z,100.00
2023-01-19T02:58:53.637Z,100.00
2023-01-19T03:02:17.824Z,100.00
2023-01-19T03:05:34.980Z,100.00
2023-01-19T03:09:11.139Z,100.00
2023-01-19T03:12:37.310Z,100.00
2023-01-19T03:15:53.551Z,100.00
2023-01-19T03:19:00.967Z,100.00
2023-01-19T03:22:13.215Z,100.00
2023-01-19T03:25:22.400Z,100.00
2023-01-19T03:28:28.127Z,100.00
2023-01-19T03:31:38.167Z,100.00
2023-01-19T03:34:43.870Z,100.00
2023-01-19T03:37:51.181Z,100.00
2023-01-19T03:40:56.405Z,100.00
2023-01-19T03:44:02.218Z,100.00
2023-01-19T03:47:06.881Z,100.00
2023-01-19T03:50:11.948Z,100.00
2023-01-19T03:53:22.118Z,100.00
2023-01-19T03:56:34.671Z,100.00
2023-01-19T03:59:41.843Z,100.00
2023-01-19T04:02:47.820Z,100.00
2023-01-19T04:05:53.118Z,100.00
2023-01-19T04:08:58.585Z,100.00
2023-01-19T04:12:04.469Z,100.00
2023-01-19T04:15:09.881Z,100.00
2023-01-19T04:18:15.138Z,100.00
2023-01-19T04:21:22.932Z,100.00
2023-01-19T04:24:27.988Z,100.00
2023-01-19T04:27:35.740Z,100.00
2023-01-19T04:30:41.618Z,100.00
2023-01-19T04:33:46.642Z,100.00
2023-01-19T04:36:53.674Z,100.00
2023-01-19T04:39:59.196Z,100.00
2023-01-19T04:42:57.404Z,100.00
2023-01-19T04:45:51.513Z,100.00
2023-01-19T04:48:57.164Z,100.00
2023-01-19T04:52:02.143Z,100.00
2023-01-19T04:55:07.307Z,100.00
2023-01-19T04:58:12.559Z,100.00
2023-01-19T05:01:23.169Z,100.00
2023-01-19T05:04:32.029Z,100.00
2023-01-19T05:07:38.319Z,100.00
2023-01-19T05:10:45.034Z,100.00
2023-01-19T05:13:51.603Z,100.00
2023-01-19T05:16:57.508Z,100.00
2023-01-19T05:20:02.309Z,100.00
2023-01-19T05:23:07.685Z,100.00
2023-01-19T05:26:15.611Z,100.00
2023-01-19T05:29:21.894Z,100.00
2023-01-19T05:32:27.418Z,100.00
2023-01-19T05:35:36.273Z,100.00
2023-01-19T05:38:38.515Z,100.00
2023-01-19T05:41:43.513Z,100.00
2023-01-19T05:44:49.044Z,100.00
2023-01-19T05:47:54.855Z,100.00
2023-01-19T05:51:00.054Z,100.00
2023-01-19T05:54:04.775Z,100.00
2023-01-19T05:57:11.634Z,100.00
2023-01-19T06:00:16.269Z,100.00
2023-01-19T06:03:21.660Z,100.00
2023-01-19T06:06:27.608Z,100.00
2023-01-19T06:09:32.822Z,100.00
2023-01-19T06:12:39.280Z,100.00
2023-01-19T06:15:45.709Z,100.00
2023-01-19T06:18:52.955Z,100.00
2023-01-19T06:21:58.441Z,100.00
2023-01-19T06:25:03.853Z,100.00
2023-01-19T06:28:09.856Z,100.00
2023-01-19T06:31:15.494Z,100.00
2023-01-19T06:34:20.427Z,100.00
2023-01-19T06:37:26.762Z,100.00
2023-01-19T06:40:32.750Z,100.00
2023-01-19T06:43:38.134Z,99.50
2023-01-19T06:46:44.593Z,99.31
2023-01-19T06:49:50.103Z,98.67
2023-01-19T06:52:56.511Z,98.42
2023-01-19T06:56:02.104Z,98.22
2023-01-19T06:59:08.935Z,97.89
2023-01-19T07:02:26.639Z,97.89
2023-01-19T07:05:23.173Z,98.32
2023-01-19T07:08:30.734Z,98.03
2023-01-19T07:11:36.155Z,97.68
2023-01-19T07:14:41.967Z,97.01
2023-01-19T07:17:48.770Z,96.84
2023-01-19T07:20:56.724Z,96.31
2023-01-19T07:24:08.467Z,96.11
2023-01-19T07:27:13.691Z,95.49
2023-01-19T07:30:22.482Z,94.95
2023-01-19T07:33:28.726Z,94.44
2023-01-19T07:36:34.067Z,94.30
2023-01-19T07:39:40.522Z,94.05
2023-01-19T07:42:38.964Z,93.34
2023-01-19T07:45:44.379Z,93.20
2023-01-19T07:48:52.119Z,93.29
2023-01-19T07:51:56.929Z,92.99
2023-01-19T07:55:02.643Z,92.63
2023-01-19T07:58:08.311Z,92.51
2023-01-19T08:01:14.921Z,92.46
2023-01-19T08:04:20.450Z,92.34
2023-01-19T08:07:25.444Z,91.42
2023-01-19T08:10:32.934Z,91.16
2023-01-19T08:13:39.163Z,90.61
2023-01-19T08:16:45.672Z,90.17
2023-01-19T08:19:52.386Z,89.34
2023-01-19T08:22:58.167Z,89.19
2023-01-19T08:25:57.836Z,89.05
2023-01-19T08:28:50.684Z,88.59
2023-01-19T08:31:59.644Z,88.69
2023-01-19T08:35:05.634Z,88.96
2023-01-19T08:38:11.383Z,88.94
2023-01-19T08:41:17.465Z,87.97
2023-01-19T08:44:23.264Z,88.21
2023-01-19T08:47:28.190Z,87.30
2023-01-19T08:50:33.345Z,87.29
2023-01-19T08:53:38.305Z,87.19
2023-01-19T08:56:43.466Z,87.80
2023-01-19T08:59:48.631Z,87.61
2023-01-19T09:02:54.784Z,87.94
2023-01-19T09:06:00.634Z,87.63
2023-01-19T09:09:06.477Z,87.88
2023-01-19T09:12:12.272Z,87.20
2023-01-19T09:15:17.700Z,87.79
2023-01-19T09:18:25.799Z,87.74
2023-01-19T09:21:31.334Z,87.60
2023-01-19T09:24:36.723Z,87.70
2023-01-19T09:27:42.306Z,87.79
2023-01-19T09:30:47.605Z,88.16
2023-01-19T09:33:52.959Z,88.50
2023-01-19T09:36:58.566Z,87.86
2023-01-19T09:40:04.764Z,87.88
2023-01-19T09:43:29.322Z,87.87
2023-01-19T09:46:51.088Z,87.47
2023-01-19T09:50:02.030Z,86.53
2023-01-19T09:53:17.156Z,85.23
2023-01-19T09:56:27.864Z,85.29
2023-01-19T09:59:41.448Z,85.04
2023-01-19T10:03:09.505Z,85.43
2023-01-19T10:06:17.024Z,84.45
2023-01-19T10:09:30.395Z,83.60
2023-01-19T10:13:09.520Z,83.27
2023-01-19T10:16:57.620Z,84.22
2023-01-19T10:20:00.487Z,85.79
2023-01-19T10:23:07.317Z,85.86
2023-01-19T10:26:28.245Z,85.03
2023-01-19T10:29:50.253Z,84.73
2023-01-19T10:32:56.099Z,84.46
2023-01-19T10:36:02.345Z,83.57
2023-01-19T10:39:08.392Z,82.56
2023-01-19T10:42:14.702Z,82.91
2023-01-19T10:45:24.909Z,83.06
2023-01-19T10:48:22.113Z,83.09
2023-01-19T10:51:27.110Z,83.86
2023-01-19T10:54:32.692Z,83.30
2023-01-19T10:57:44.983Z,82.52
2023-01-19T11:00:55.609Z,82.07
2023-01-19T11:04:00.739Z,82.61
2023-01-19T11:07:16.329Z,83.22
2023-01-19T11:10:37.249Z,82.82
2023-01-19T11:13:40.848Z,82.65
2023-01-19T11:16:47.249Z,83.21
2023-01-19T11:19:53.544Z,82.34
2023-01-19T11:22:59.928Z,82.36
2023-01-19T11:26:08.206Z,82.02
2023-01-19T11:29:14.871Z,81.35
2023-01-19T11:32:37.016Z,81.22
2023-01-19T11:35:54.021Z,81.48
2023-01-19T11:38:59.876Z,81.73
2023-01-19T11:42:12.967Z,81.79
2023-01-19T11:45:27.527Z,81.60
2023-01-19T11:48:54.556Z,81.76
2023-01-19T11:52:22.083Z,82.01
2023-01-19T11:56:05.641Z,80.28
2023-01-19T11:59:11.776Z,80.84
2023-01-19T12:02:17.674Z,80.83
2023-01-19T12:05:26.868Z,80.47
2023-01-19T12:08:39.146Z,80.31
2023-01-19T12:11:56.711Z,79.33
2023-01-19T12:15:29.412Z,79.52
2023-01-19T12:18:27.626Z,79.54
2023-01-19T12:21:33.317Z,79.69
2023-01-19T12:24:48.818Z,79.78
2023-01-19T12:27:58.392Z,80.44
2023-01-19T12:31:03.775Z,80.15
2023-01-19T12:34:09.724Z,78.96
2023-01-19T12:37:18.870Z,79.23
2023-01-19T12:40:41.714Z,79.30
2023-01-19T12:43:48.190Z,79.04
2023-01-19T12:47:09.568Z,79.11
2023-01-19T12:50:16.452Z,78.99
2023-01-19T12:53:25.397Z,78.77
2023-01-19T12:56:31.306Z,79.15
2023-01-19T12:59:33.716Z,79.36
2023-01-19T13:02:43.936Z,79.34
2023-01-19T13:05:59.813Z,78.94
2023-01-19T13:09:13.240Z,79.03
2023-01-19T13:12:39.886Z,79.36
2023-01-19T13:15:51.202Z,79.41
2023-01-19T13:18:57.053Z,79.61
2023-01-19T13:22:03.600Z,79.80
2023-01-19T13:25:27.651Z,79.90
2023-01-19T13:28:34.524Z,80.89
2023-01-19T13:31:39.834Z,81.43
2023-01-19T13:34:59.660Z,81.31
2023-01-19T13:38:04.869Z,81.35
2023-01-19T13:41:09.870Z,81.60
2023-01-19T13:44:24.200Z,81.77
2023-01-19T13:47:50.801Z,81.14
2023-01-19T13:50:51.683Z,80.87
2023-01-19T13:53:44.307Z,81.20
2023-01-19T13:56:52.078Z,81.40
2023-01-19T13:59:57.789Z,81.75
2023-01-19T14:03:10.189Z,82.29
2023-01-19T14:06:15.205Z,82.68
2023-01-19T14:09:25.022Z,83.18
2023-01-19T14:12:32.750Z,83.20
2023-01-19T14:15:31.748Z,83.77
2023-01-19T14:18:43.567Z,84.12
2023-01-19T14:21:54.817Z,83.94
2023-01-19T14:25:00.939Z,84.65
2023-01-19T14:28:09.080Z,85.03
2023-01-19T14:31:15.444Z,85.31
2023-01-19T14:34:23.712Z,84.94
2023-01-19T14:37:35.819Z,85.10
2023-01-19T14:40:41.242Z,85.43
2023-01-19T14:43:45.874Z,85.58
2023-01-19T14:46:51.361Z,86.34
2023-01-19T14:49:58.394Z,86.55
2023-01-19T14:53:14.153Z,86.70
2023-01-19T14:56:20.579Z,86.52
2023-01-19T14:59:18.861Z,86.56
2023-01-19T15:02:11.325Z,87.55
2023-01-19T15:05:17.199Z,87.45
2023-01-19T15:08:22.909Z,88.32
2023-01-19T15:11:46.915Z,88.60
2023-01-19T15:14:52.636Z,88.68
2023-01-19T15:17:58.637Z,88.76
2023-01-19T15:21:07.158Z,90.14
2023-01-19T15:24:13.021Z,89.45
2023-01-19T15:27:18.492Z,89.21
2023-01-19T15:30:44.006Z,89.43
2023-01-19T15:33:49.185Z,89.77
2023-01-19T15:36:54.385Z,89.48
2023-01-19T15:40:00.292Z,89.75
2023-01-19T15:43:05.471Z,91.09
2023-01-19T15:46:17.901Z,90.46
2023-01-19T15:49:23.951Z,89.71
2023-01-19T15:52:29.437Z,89.10
2023-01-19T15:55:35.171Z,89.23
2023-01-19T15:58:42.441Z,89.23
2023-01-19T16:01:48.013Z,88.88
2023-01-19T16:04:54.445Z,88.68
2023-01-19T16:08:01.837Z,87.50
2023-01-19T16:11:07.670Z,87.10
2023-01-19T16:14:12.501Z,87.07
2023-01-19T16:17:17.496Z,87.10
2023-01-19T16:20:24.976Z,86.95
2023-01-19T16:23:30.697Z,86.73
2023-01-19T16:26:44.760Z,86.25
2023-01-19T16:29:49.375Z,86.69
2023-01-19T16:32:48.255Z,86.31
2023-01-19T16:35:53.295Z,84.57
2023-01-19T16:38:58.285Z,83.64
2023-01-19T16:42:02.339Z,83.89
2023-01-19T16:45:07.515Z,85.24
2023-01-19T16:48:12.685Z,85.50
2023-01-19T16:51:19.336Z,85.21
2023-01-19T16:54:27.901Z,84.95
2023-01-19T16:57:26.388Z,86.09
2023-01-19T17:00:31.785Z,86.55
2023-01-19T17:03:37.190Z,85.96
2023-01-19T17:06:42.258Z,86.48
2023-01-19T17:09:47.747Z,86.71
2023-01-19T17:12:53.589Z,86.88
2023-01-19T17:15:59.093Z,86.59
2023-01-19T17:19:05.738Z,85.72
2023-01-19T17:22:10.093Z,85.30
2023-01-19T17:25:15.914Z,86.24
2023-01-19T17:28:21.750Z,86.81
2023-01-19T17:31:33.751Z,87.60
2023-01-19T17:34:39.253Z,87.46
2023-01-19T17:37:44.698Z,87.34
2023-01-19T17:40:50.261Z,87.22
2023-01-19T17:43:57.670Z,87.11
2023-01-19T17:47:04.730Z,86.46
2023-01-19T17:50:14.707Z,86.68
2023-01-19T17:53:20.757Z,86.54
2023-01-19T17:56:29.454Z,86.54
2023-01-19T17:59:34.937Z,86.32
2023-01-19T18:02:42.620Z,86.91
2023-01-19T18:05:48.395Z,86.33
2023-01-19T18:08:57.672Z,86.49
2023-01-19T18:12:02.985Z,86.62
2023-01-19T18:15:09.389Z,88.41
2023-01-19T18:18:25.203Z,88.82
2023-01-19T18:21:31.401Z,87.61
2023-01-19T18:24:37.425Z,86.54
2023-01-19T18:27:42.556Z,85.87
2023-01-19T18:30:49.517Z,85.69
2023-01-19T18:33:54.463Z,85.51
2023-01-19T18:36:59.553Z,85.31
2023-01-19T18:40:07.723Z,85.82
2023-01-19T18:43:14.418Z,86.64
2023-01-19T18:46:20.266Z,86.71
2023-01-19T18:49:25.851Z,85.85
2023-01-19T18:52:31.586Z,85.71
2023-01-19T18:55:37.216Z,85.43
2023-01-19T18:58:42.405Z,85.35
2023-01-19T19:01:42.619Z,86.29
2023-01-19T19:04:28.884Z,86.61
2023-01-19T19:07:21.754Z,86.39
2023-01-19T19:10:14.449Z,85.90
2023-01-19T19:13:20.436Z,85.58
2023-01-19T19:16:27.278Z,85.69
2023-01-19T19:19:33.194Z,86.08
2023-01-19T19:22:38.548Z,86.53
2023-01-19T19:25:44.146Z,86.54
2023-01-19T19:28:52.005Z,86.63
2023-01-19T19:31:57.049Z,86.50
2023-01-19T19:35:05.702Z,86.34
2023-01-19T19:38:10.283Z,86.60
2023-01-19T19:41:19.777Z,87.14
2023-01-19T19:44:25.696Z,87.10
2023-01-19T19:47:31.301Z,87.65
2023-01-19T19:50:36.780Z,87.58
2023-01-19T19:53:44.509Z,87.85
2023-01-19T19:56:49.651Z,88.30
2023-01-19T19:59:54.174Z,88.08
2023-01-19T20:02:59.136Z,88.07
2023-01-19T20:06:04.586Z,88.16
2023-01-19T20:09:09.924Z,88.06
2023-01-19T20:12:16.626Z,88.67
2023-01-19T20:15:22.455Z,88.88
2023-01-19T20:18:27.826Z,89.57
2023-01-19T20:21:42.698Z,89.58
2023-01-19T20:24:48.953Z,89.84
2023-01-19T20:27:54.303Z,90.11
2023-01-19T20:31:01.370Z,90.14
2023-01-19T20:34:06.624Z,90.03
2023-01-19T20:37:13.013Z,89.85
2023-01-19T20:40:18.725Z,89.50
2023-01-19T20:43:24.819Z,89.27
2023-01-19T20:46:24.615Z,89.07
2023-01-19T20:49:30.234Z,89.25
2023-01-19T20:52:35.692Z,89.21
2023-01-19T20:55:41.610Z,89.44
2023-01-19T20:58:46.503Z,89.04
2023-01-19T21:01:52.357Z,89.00
2023-01-19T21:04:59.923Z,88.81
2023-01-19T21:08:05.601Z,88.35
2023-01-19T21:11:12.178Z,88.42
2023-01-19T21:14:18.486Z,87.58
2023-01-19T21:17:23.044Z,87.17
2023-01-19T21:20:29.102Z,87.98
2023-01-19T21:23:33.481Z,88.90
2023-01-19T21:26:40.212Z,88.21
2023-01-19T21:29:47.313Z,88.55
2023-01-19T21:32:53.730Z,88.25
2023-01-19T21:36:10.878Z,88.13
2023-01-19T21:39:17.494Z,88.85
2023-01-19T21:42:16.475Z,89.00
2023-01-19T21:45:23.518Z,89.66
2023-01-19T21:48:28.570Z,89.31
2023-01-19T21:51:33.372Z,88.82
2023-01-19T21:54:39.103Z,88.88
2023-01-19T21:57:45.408Z,89.38
2023-01-19T22:00:51.930Z,89.42
2023-01-19T22:03:57.446Z,89.68
2023-01-19T22:07:03.142Z,89.44
2023-01-19T22:10:09.248Z,89.11
2023-01-19T22:13:16.192Z,89.94
2023-01-19T22:16:24.683Z,90.18
2023-01-19T22:19:29.562Z,90.16
2023-01-19T22:22:34.382Z,89.89
2023-01-19T22:25:39.783Z,90.33
2023-01-19T22:28:45.034Z,91.28
2023-01-19T22:31:52.544Z,92.06
2023-01-19T22:34:57.278Z,91.77
2023-01-19T22:38:02.763Z,91.60
2023-01-19T22:41:08.388Z,91.89
2023-01-19T22:44:15.681Z,92.10
2023-01-19T22:47:21.235Z,91.27
2023-01-19T22:50:26.238Z,91.45
2023-01-19T22:53:31.395Z,91.32
2023-01-19T22:56:39.751Z,91.45
2023-01-19T22:59:45.475Z,91.51
2023-01-19T23:02:50.448Z,91.39
2023-01-19T23:05:56.589Z,91.14
2023-01-19T23:09:01.358Z,91.00
2023-01-19T23:12:06.222Z,90.80
2023-01-19T23:15:11.403Z,90.92
2023-01-19T23:18:16.547Z,91.01
2023-01-19T23:21:24.819Z,91.04
2023-01-19T23:24:29.856Z,90.58
2023-01-19T23:27:35.511Z,90.14
2023-01-19T23:30:41.194Z,90.32
2023-01-19T23:33:49.779Z,89.98
2023-01-19T23:36:58.010Z,89.69
2023-01-19T23:40:04.765Z,90.25
2023-01-19T23:43:11.205Z,89.96
2023-01-19T23:46:19.620Z,88.87
2023-01-19T23:49:24.819Z,89.16
2023-01-19T23:52:30.208Z,88.98
2023-01-19T23:55:35.271Z,88.77
2023-01-19T23:58:40.971Z,88.32
